Time;durP1;ratioP1;P1;durP2;ratioP2;P2;SDS_P1;SDS_P2;PMS_P1;PMS_P2;Temp;Humidity;BMP_temperature;BMP_pressure;BME280_temperature;BME280_humidity;BME280_pressure;Samples;Min_cycle;Max_cycle;Signal;HPM_P1;HPM_P2
2022/04/22 00:01:26;;;;;;;15.45;7.15;;;9.70;99.90;;;;;;5051348;28;20135;-83
2022/04/22 00:03:52;;;;;;;15.57;7.25;;;9.70;99.90;;;;;;5033336;28;20084;-83
2022/04/22 00:06:17;;;;;;;14.57;6.72;;;9.70;99.90;;;;;;5034169;28;20535;-83
2022/04/22 00:08:43;;;;;;;13.23;6.80;;;9.70;99.90;;;;;;5035449;28;20064;-83
2022/04/22 00:13:54;;;;;;;;;;;9.60;99.90;;;;;;5051935;28;20061;-83
2022/04/22 00:16:21;;;;;;;15.75;7.70;;;9.60;99.90;;;;;;5037892;28;19967;-83
2022/04/22 00:18:46;;;;;;;17.25;7.43;;;9.60;99.90;;;;;;5054546;28;20037;-83
2022/04/22 00:21:12;;;;;;;15.13;7.70;;;9.50;99.90;;;;;;5055121;28;20049;-84
2022/04/22 00:23:37;;;;;;;15.00;7.03;;;9.50;99.90;;;;;;5055378;28;20041;-83
2022/04/22 00:26:03;;;;;;;16.42;7.85;;;9.50;99.90;;;;;;5036745;28;20075;-83
2022/04/22 00:28:29;;;;;;;18.35;7.93;;;9.40;99.90;;;;;;5037686;28;20056;-83
2022/04/22 00:30:54;;;;;;;17.48;7.70;;;9.40;99.90;;;;;;5036113;28;20041;-83
2022/04/22 00:33:20;;;;;;;15.93;7.35;;;9.30;99.90;;;;;;5036537;28;20401;-83
2022/04/22 00:35:46;;;;;;;17.55;7.40;;;9.30;99.90;;;;;;5053478;28;20101;-83
2022/04/22 00:38:12;;;;;;;14.57;7.70;;;9.30;99.90;;;;;;5055198;28;20498;-84
2022/04/22 00:40:38;;;;;;;17.05;8.00;;;9.20;99.90;;;;;;5036552;28;20059;-84
2022/04/22 00:43:18;;;;;;;15.10;7.28;;;8.70;99.90;;;;;;5037033;28;20119;-84
2022/04/22 00:45:44;;;;;;;15.50;8.27;;;9.20;99.90;;;;;;5036970;28;20073;-83
2022/04/22 00:48:10;;;;;;;16.80;7.95;;;9.10;99.90;;;;;;5054231;28;20083;-83
2022/04/22 00:50:36;;;;;;;16.10;7.50;;;9.10;99.90;;;;;;5037139;28;20450;-83
2022/04/22 00:53:02;;;;;;;19.23;8.43;;;9.00;99.90;;;;;;5036376;28;20040;-83
2022/04/22 00:55:29;;;;;;;16.58;8.40;;;9.00;99.90;;;;;;5054727;28;20477;-83
2022/04/22 00:57:55;;;;;;;19.52;8.52;;;8.90;99.90;;;;;;5054589;28;20045;-83
2022/04/22 01:00:21;;;;;;;16.23;7.70;;;8.90;99.90;;;;;;5054008;28;20386;-83
2022/04/22 01:02:47;;;;;;;17.52;8.18;;;8.80;99.90;;;;;;5054669;28;20049;-83
2022/04/22 01:10:41;;;;;;;25.13;10.45;;;8.70;99.90;;;;;;5036313;28;20020;-83
2022/04/22 01:13:07;;;;;;;19.05;8.73;;;8.70;99.90;;;;;;5036599;28;20140;-83
2022/04/22 01:15:34;;;;;;;17.67;8.60;;;8.70;99.90;;;;;;5053809;28;20493;-83
2022/04/22 01:18:00;;;;;;;18.90;9.20;;;8.60;99.90;;;;;;5036483;28;20480;-84
2022/04/22 01:20:26;;;;;;;19.52;9.70;;;8.60;99.90;;;;;;5053736;28;20052;-83
2022/04/22 01:22:52;;;;;;;17.85;8.95;;;8.50;99.90;;;;;;5053174;28;20067;-83
2022/04/22 01:25:18;;;;;;;21.05;9.70;;;8.50;99.90;;;;;;5054360;28;20045;-83
2022/04/22 01:27:47;;;;;;;17.85;9.88;;;8.40;99.90;;;;;;5053713;28;20090;-83
2022/04/22 01:30:13;;;;;;;18.08;9.38;;;8.40;99.90;;;;;;5035412;28;20041;-83
2022/04/22 01:32:38;;;;;;;18.27;9.40;;;8.40;99.90;;;;;;5053994;28;20399;-83
2022/04/22 01:35:04;;;;;;;18.45;9.45;;;8.30;99.90;;;;;;5054058;28;20045;-83
2022/04/22 01:37:32;;;;;;;21.13;10.70;;;8.30;99.90;;;;;;5035659;28;20060;-83
2022/04/22 01:39:57;;;;;;;22.13;10.40;;;8.20;99.90;;;;;;5053752;28;20111;-83
2022/04/22 01:42:23;;;;;;;20.85;11.25;;;8.20;99.90;;;;;;5053066;28;20068;-83
2022/04/22 01:44:49;;;;;;;24.90;11.68;;;8.10;99.90;;;;;;5035715;28;20048;-83
2022/04/22 01:47:16;;;;;;;21.13;10.80;;;8.10;99.90;;;;;;5052499;28;20063;-83
2022/04/22 01:49:41;;;;;;;21.88;10.70;;;8.10;99.90;;;;;;5052757;28;20056;-83
2022/04/22 01:52:07;;;;;;;22.35;11.40;;;8.00;99.90;;;;;;5053727;28;20484;-83
2022/04/22 01:54:33;;;;;;;21.90;11.13;;;8.00;99.90;;;;;;5035959;28;20067;-84
2022/04/22 01:56:58;;;;;;;21.67;10.95;;;7.90;99.90;;;;;;5052783;28;20103;-83
2022/04/22 01:59:24;;;;;;;20.52;11.32;;;7.90;99.90;;;;;;5036208;28;20053;-83
2022/04/22 02:01:49;;;;;;;20.98;11.38;;;7.90;99.90;;;;;;5052989;28;20045;-83
2022/04/22 02:04:15;;;;;;;22.33;12.18;;;7.80;99.90;;;;;;5052363;28;20439;-83
2022/04/22 02:06:40;;;;;;;25.83;11.52;;;7.80;99.90;;;;;;5052446;28;20033;-83
2022/04/22 02:09:06;;;;;;;21.10;11.25;;;7.80;99.90;;;;;;5053453;28;20098;-83
2022/04/22 02:11:32;;;;;;;24.00;11.73;;;7.70;99.90;;;;;;5052630;28;20041;-83
2022/04/22 02:13:58;;;;;;;22.85;11.60;;;7.70;99.90;;;;;;5052662;28;20064;-83
2022/04/22 02:16:23;;;;;;;22.42;11.40;;;7.70;99.90;;;;;;5035399;28;20041;-83
2022/04/22 02:18:49;;;;;;;22.08;11.65;;;7.70;99.90;;;;;;5052102;28;20049;-83
2022/04/22 02:21:15;;;;;;;22.85;11.32;;;7.60;99.90;;;;;;5035275;28;20051;-83
2022/04/22 02:23:41;;;;;;;22.15;10.70;;;7.60;99.90;;;;;;5034633;28;20049;-83
2022/04/22 02:26:07;;;;;;;23.77;12.32;;;7.60;99.90;;;;;;5034436;28;20045;-83
2022/04/22 02:28:33;;;;;;;24.02;11.20;;;7.60;99.90;;;;;;5052933;28;20041;-83
2022/04/22 02:31:07;;;;;;;22.27;11.43;;;7.50;99.90;;;;;;5052595;28;20051;-83
2022/04/22 02:33:35;;;;;;;23.20;10.52;;;7.50;99.90;;;;;;5052330;28;20047;-83
2022/04/22 02:36:01;;;;;;;22.17;11.32;;;7.40;99.90;;;;;;5052732;28;20057;-83
2022/04/22 02:38:28;;;;;;;21.67;11.00;;;7.40;99.90;;;;;;5034432;28;20440;-83
2022/04/22 02:46:23;;;;;;;20.05;11.02;;;7.40;99.90;;;;;;5051139;28;19924;-83
2022/04/22 02:48:49;;;;;;;21.42;10.50;;;7.30;99.90;;;;;;5034455;28;20037;-83
2022/04/22 02:51:14;;;;;;;22.38;10.70;;;7.30;99.90;;;;;;5034514;28;20116;-83
2022/04/22 02:53:40;;;;;;;20.23;10.88;;;7.40;99.90;;;;;;5051424;28;20060;-83
2022/04/22 02:56:07;;;;;;;22.67;10.52;;;7.30;99.90;;;;;;5052653;28;20041;-83
2022/04/22 02:58:33;;;;;;;20.92;10.93;;;7.30;99.90;;;;;;5052832;28;20052;-83
2022/04/22 03:00:58;;;;;;;19.73;10.80;;;7.30;99.90;;;;;;5034073;28;20087;-83
2022/04/22 03:03:24;;;;;;;20.02;10.45;;;7.20;99.90;;;;;;5052550;28;20077;-83
2022/04/22 03:05:51;;;;;;;19.63;10.38;;;7.30;99.90;;;;;;5034391;28;20400;-83
2022/04/22 03:08:16;;;;;;;24.38;10.20;;;7.20;99.90;;;;;;5051717;28;20476;-83
2022/04/22 03:10:42;;;;;;;20.45;9.65;;;7.20;99.90;;;;;;5052110;28;20132;-83
2022/04/22 03:13:08;;;;;;;19.33;9.90;;;7.20;99.90;;;;;;5034626;28;20077;-83
2022/04/22 03:15:35;;;;;;;20.90;9.63;;;7.10;99.90;;;;;;5034006;28;20167;-83
2022/04/22 03:18:01;;;;;;;20.00;9.90;;;7.10;99.90;;;;;;5053257;28;20480;-83
2022/04/22 03:20:26;;;;;;;22.10;9.95;;;7.00;99.90;;;;;;5034760;28;20138;-83
2022/04/22 03:22:52;;;;;;;21.17;9.93;;;7.00;99.90;;;;;;5051697;28;20047;-83
2022/04/22 03:25:20;;;;;;;20.48;10.07;;;7.00;99.90;;;;;;5052441;28;20041;-83
2022/04/22 03:27:46;;;;;;;21.65;10.98;;;7.00;99.90;;;;;;5051662;28;20041;-83
2022/04/22 03:30:12;;;;;;;18.30;9.38;;;6.90;99.90;;;;;;5053057;28;20041;-84
2022/04/22 03:32:38;;;;;;;19.40;10.27;;;6.90;99.90;;;;;;5034626;28;20094;-83
2022/04/22 03:35:04;;;;;;;17.20;9.02;;;6.90;99.90;;;;;;5033750;28;20071;-83
2022/04/22 03:37:31;;;;;;;21.48;9.60;;;6.80;99.90;;;;;;5052111;28;20045;-83
2022/04/22 03:39:57;;;;;;;20.33;9.13;;;6.80;99.90;;;;;;5051456;28;20045;-83
2022/04/22 03:42:22;;;;;;;19.92;8.82;;;6.80;99.90;;;;;;5033488;28;20048;-83
2022/04/22 03:44:48;;;;;;;19.77;9.25;;;6.80;99.90;;;;;;5051908;28;20045;-83
2022/04/22 03:47:14;;;;;;;18.10;8.85;;;6.70;99.90;;;;;;5034378;28;20041;-83
2022/04/22 03:49:39;;;;;;;18.23;8.95;;;6.70;99.90;;;;;;5051116;28;20116;-83
2022/04/22 03:52:05;;;;;;;17.02;8.02;;;6.70;99.90;;;;;;5051780;28;20063;-83
2022/04/22 03:54:31;;;;;;;17.05;8.55;;;6.60;99.90;;;;;;5033974;28;20416;-83
2022/04/22 03:59:41;;;;;;;17.30;7.80;;;6.60;99.90;;;;;;5052092;28;20045;-84
2022/04/22 04:02:07;;;;;;;14.65;7.38;;;6.60;99.90;;;;;;5029438;28;20049;-83
2022/04/22 04:04:33;;;;;;;16.50;7.53;;;6.60;99.90;;;;;;5028110;28;20556;-83
2022/04/22 04:06:59;;;;;;;16.23;6.97;;;6.70;99.90;;;;;;5036747;28;20400;-84
2022/04/22 04:17:40;;;;;;;;;;;6.70;99.90;;;;;;5055301;28;20049;-83
2022/04/22 04:25:35;;;;;;;15.20;6.75;;;6.60;99.90;;;;;;5036824;28;20049;-83
2022/04/22 04:28:02;;;;;;;15.45;6.90;;;6.60;99.90;;;;;;5054915;28;20043;-84
2022/04/22 04:30:28;;;;;;;14.30;6.72;;;6.60;99.90;;;;;;5037715;28;20045;-83
2022/04/22 04:32:53;;;;;;;16.20;6.90;;;6.60;99.90;;;;;;5054373;28;20515;-83
2022/04/22 04:35:19;;;;;;;13.63;6.15;;;6.60;99.90;;;;;;5037207;28;20443;-83
2022/04/22 04:37:44;;;;;;;12.57;5.93;;;6.60;99.90;;;;;;5036992;28;20443;-83
2022/04/22 04:40:10;;;;;;;16.45;5.75;;;6.60;99.90;;;;;;5054158;28;20457;-83
2022/04/22 04:42:36;;;;;;;13.85;6.30;;;6.60;99.90;;;;;;5055219;28;20374;-83
2022/04/22 04:45:06;;;;;;;12.38;5.70;;;6.60;99.90;;;;;;5036379;28;20045;-83
2022/04/22 04:47:41;;;;;;;13.38;5.90;;;6.70;99.90;;;;;;5037221;28;20108;-83
2022/04/22 04:50:07;;;;;;;14.00;5.78;;;6.60;99.90;;;;;;5055232;28;20045;-83
2022/04/22 04:52:36;;;;;;;12.25;5.88;;;6.70;99.90;;;;;;5054299;28;20101;-83
2022/04/22 04:55:04;;;;;;;14.35;5.97;;;6.70;99.90;;;;;;5054348;28;20392;-83
2022/04/22 04:57:29;;;;;;;14.77;6.00;;;6.70;99.90;;;;;;5036924;28;20503;-83
2022/04/22 04:59:55;;;;;;;12.50;5.82;;;6.70;99.90;;;;;;5053653;28;20049;-83
2022/04/22 05:02:20;;;;;;;12.50;5.70;;;6.80;99.90;;;;;;5054687;28;20048;-84
2022/04/22 05:04:46;;;;;;;13.73;5.75;;;6.80;99.90;;;;;;5054773;28;20127;-83
2022/04/22 05:07:11;;;;;;;13.40;5.40;;;6.80;99.90;;;;;;5054209;28;20033;-83
2022/04/22 05:09:37;;;;;;;12.73;5.47;;;6.80;99.90;;;;;;5054318;28;20492;-83
2022/04/22 05:12:03;;;;;;;13.67;6.07;;;6.90;99.90;;;;;;5036309;28;20396;-84
2022/04/22 05:14:28;;;;;;;13.97;5.70;;;6.90;99.90;;;;;;5053977;28;20062;-83
2022/04/22 05:16:54;;;;;;;14.10;5.33;;;7.00;99.90;;;;;;5054070;28;20037;-83
2022/04/22 05:19:21;;;;;;;12.60;5.68;;;7.00;99.90;;;;;;5036546;28;20507;-84
2022/04/22 05:21:47;;;;;;;12.00;5.30;;;7.00;99.90;;;;;;5035239;28;20087;-84
2022/04/22 05:24:13;;;;;;;14.30;5.53;;;7.10;99.90;;;;;;5054189;28;20076;-83
2022/04/22 05:26:39;;;;;;;12.18;5.25;;;7.10;99.90;;;;;;5036367;28;20591;-83
2022/04/22 05:29:04;;;;;;;13.40;5.30;;;7.20;99.90;;;;;;5053508;28;20041;-83
2022/04/22 05:34:14;;;;;;;11.32;5.20;;;7.30;99.90;;;;;;5036289;28;20071;-84
2022/04/22 05:36:40;;;;;;;11.23;5.10;;;7.40;99.90;;;;;;5035228;28;20400;-83
2022/04/22 05:39:08;;;;;;;9.57;4.20;;;7.40;99.90;;;;;;5036064;28;20068;-83
2022/04/22 05:41:35;;;;;;;11.35;5.10;;;7.50;99.90;;;;;;5035237;28;20041;-83
2022/04/22 05:44:03;;;;;;;11.10;4.82;;;7.60;99.90;;;;;;5035517;28;20393;-84
2022/04/22 05:46:29;;;;;;;11.00;5.03;;;7.60;99.90;;;;;;5035943;28;20128;-83
2022/04/22 05:48:55;;;;;;;10.65;4.82;;;7.60;99.90;;;;;;5035176;28;20140;-83
2022/04/22 05:51:20;;;;;;;10.05;4.60;;;7.60;99.90;;;;;;5035982;28;20084;-83
2022/04/22 05:53:48;;;;;;;14.35;5.05;;;7.60;99.90;;;;;;5053177;28;20124;-87
2022/04/22 05:56:14;;;;;;;10.23;4.50;;;7.70;99.90;;;;;;5035370;28;20053;-83
2022/04/22 05:58:39;;;;;;;11.80;4.80;;;7.60;99.90;;;;;;5035572;28;20087;-86
2022/04/22 06:01:05;;;;;;;11.82;4.72;;;7.60;99.90;;;;;;5053846;28;20045;-85
2022/04/22 06:03:31;;;;;;;11.32;4.95;;;8.00;99.90;;;;;;5034999;28;20396;-86
2022/04/22 06:05:57;;;;;;;11.20;4.75;;;7.60;99.90;;;;;;5035466;28;20101;-84
2022/04/22 06:11:09;;;;;;;;;;;7.70;99.90;;;;;;5015267;28;20137;-88
2022/04/22 06:13:35;;;;;;;10.45;4.72;;;7.50;99.90;;;;;;5047331;28;19974;-87
2022/04/22 06:16:01;;;;;;;10.00;4.57;;;7.70;99.90;;;;;;5053102;28;20045;-90
2022/04/22 06:18:27;;;;;;;11.30;4.65;;;7.70;99.90;;;;;;5052404;28;20041;-89
2022/04/22 06:20:59;;;;;;;10.75;4.47;;;7.80;99.90;;;;;;5051795;28;20495;-92
2022/04/22 06:23:34;;;;;;;11.95;4.60;;;7.50;99.90;;;;;;5035450;28;20398;-89
2022/04/22 06:26:03;;;;;;;12.52;5.00;;;7.70;99.90;;;;;;5053032;28;20052;-91
2022/04/22 06:28:28;;;;;;;10.07;4.45;;;7.80;99.90;;;;;;5034754;28;20056;-89
2022/04/22 06:30:54;;;;;;;13.68;4.78;;;8.00;99.90;;;;;;5034129;28;20048;-90
2022/04/22 06:33:20;;;;;;;11.55;4.63;;;8.10;99.90;;;;;;5055239;28;20130;-89
2022/04/22 06:35:49;;;;;;;12.70;5.15;;;8.20;99.90;;;;;;5060802;28;20044;-87
2022/04/22 06:38:16;;;;;;;11.98;4.70;;;8.20;99.90;;;;;;5068677;28;20072;-87
2022/04/22 06:46:20;;;;;;;10.25;4.70;;;8.50;99.90;;;;;;5052641;28;20041;-87
2022/04/22 06:48:46;;;;;;;11.43;4.88;;;8.50;99.90;;;;;;5051292;28;20052;-87
2022/04/22 06:51:23;;;;;;;12.73;5.05;;;8.50;99.90;;;;;;5037260;28;20045;-87
2022/04/22 06:53:54;;;;;;;10.50;5.03;;;8.60;99.90;;;;;;5052165;28;20456;-87
2022/04/22 06:56:27;;;;;;;10.48;4.55;;;8.70;99.90;;;;;;5035639;28;20040;-87
2022/04/22 06:58:55;;;;;;;10.82;4.70;;;8.80;99.90;;;;;;5034627;28;20045;-87
2022/04/22 07:01:24;;;;;;;11.32;5.03;;;8.90;99.90;;;;;;5054127;28;20041;-87
2022/04/22 07:03:53;;;;;;;10.80;4.80;;;9.80;99.90;;;;;;5052623;28;20090;-87
2022/04/22 07:06:25;;;;;;;13.10;4.65;;;9.00;99.90;;;;;;5034267;28;20045;-86
2022/04/22 07:08:54;;;;;;;11.73;5.20;;;9.00;99.90;;;;;;5052370;28;20452;-87
2022/04/22 07:11:26;;;;;;;13.18;5.25;;;9.10;99.90;;;;;;5053362;28;20052;-87
2022/04/22 07:13:53;;;;;;;9.88;4.53;;;9.20;99.90;;;;;;5051126;28;20049;-87
2022/04/22 07:16:28;;;;;;;12.32;5.00;;;8.60;99.90;;;;;;5053044;28;20049;-88
2022/04/22 07:19:08;;;;;;;12.00;5.13;;;9.30;99.90;;;;;;5034695;28;20045;-88
2022/04/22 07:21:37;;;;;;;11.02;5.35;;;9.40;99.90;;;;;;5051867;28;20076;-88
2022/04/22 07:24:05;;;;;;;9.85;4.90;;;9.50;99.90;;;;;;5034486;28;20045;-88
2022/04/22 07:26:37;;;;;;;12.05;5.18;;;9.50;99.90;;;;;;5035272;28;20041;-88
2022/04/22 07:29:19;;;;;;;14.55;5.10;;;9.60;99.90;;;;;;5051110;28;20044;-86
2022/04/22 07:31:44;;;;;;;10.30;4.60;;;10.40;99.90;;;;;;5034214;28;20049;-83
2022/04/22 07:34:10;;;;;;;12.05;4.85;;;9.80;99.90;;;;;;5050628;28;20463;-86
2022/04/22 07:36:43;;;;;;;11.27;4.60;;;9.80;99.90;;;;;;5051948;28;20041;-87
2022/04/22 07:39:09;;;;;;;9.48;4.00;;;9.90;99.90;;;;;;5052817;28;20048;-86
2022/04/22 07:41:38;;;;;;;11.20;5.05;;;10.00;99.90;;;;;;5054518;28;20037;-84
2022/04/22 07:46:58;;;;;;;11.85;4.60;;;10.20;99.90;;;;;;5055657;28;20049;-87
2022/04/22 07:49:35;;;;;;;10.60;4.55;;;10.60;99.90;;;;;;5048606;28;20482;-87
2022/04/22 07:52:00;;;;;;;12.10;4.35;;;10.50;99.90;;;;;;5031781;28;20122;-85
2022/04/22 07:54:35;;;;;;;13.63;4.53;;;10.50;99.90;;;;;;5015075;28;20069;-86
2022/04/22 07:57:04;;;;;;;10.32;4.07;;;10.40;99.90;;;;;;5022629;28;20033;-86
2022/04/22 07:59:36;;;;;;;10.60;4.43;;;10.80;99.90;;;;;;5038554;28;20099;-86
2022/04/22 08:02:02;;;;;;;10.18;4.32;;;10.60;99.90;;;;;;5054915;28;20041;-86
2022/04/22 08:04:28;;;;;;;10.05;4.20;;;10.90;99.90;;;;;;5055590;28;20128;-86
2022/04/22 08:06:54;;;;;;;11.27;4.20;;;10.90;99.90;;;;;;5055547;28;20124;-86
2022/04/22 08:09:19;;;;;;;10.02;4.07;;;11.60;99.90;;;;;;5054849;28;20053;-87
2022/04/22 08:11:45;;;;;;;9.10;3.70;;;11.20;99.90;;;;;;5037561;28;20132;-86
2022/04/22 08:14:13;;;;;;;10.52;4.05;;;12.20;99.90;;;;;;5055742;28;20114;-87
2022/04/22 08:16:48;;;;;;;10.27;4.00;;;12.30;99.90;;;;;;5055168;28;20045;-86
2022/04/22 08:19:13;;;;;;;10.77;3.85;;;11.60;99.90;;;;;;5038080;28;20053;-86
2022/04/22 08:21:44;;;;;;;8.95;3.58;;;11.60;99.90;;;;;;5037803;28;20045;-86
2022/04/22 08:24:19;;;;;;;9.68;3.78;;;12.10;99.90;;;;;;5034368;28;20099;-89
2022/04/22 08:26:45;;;;;;;9.05;3.67;;;11.70;99.90;;;;;;5033471;28;20051;-86
2022/04/22 08:29:11;;;;;;;11.23;4.03;;;12.30;99.90;;;;;;5037142;28;20044;-86
2022/04/22 08:31:40;;;;;;;11.45;3.75;;;12.30;99.90;;;;;;5052076;28;20128;-84
2022/04/22 08:34:05;;;;;;;8.43;3.53;;;12.50;99.90;;;;;;5042052;28;20163;-84
2022/04/22 08:36:31;;;;;;;8.00;3.50;;;12.30;99.90;;;;;;5039864;28;20124;-85
2022/04/22 08:39:00;;;;;;;9.10;3.42;;;12.50;99.90;;;;;;5024016;28;20049;-88
2022/04/22 08:41:37;;;;;;;11.60;3.70;;;12.50;99.90;;;;;;5050631;28;20037;-86
2022/04/22 08:44:22;;;;;;;8.60;3.10;;;12.50;99.90;;;;;;5054506;28;20041;-86
2022/04/22 08:49:59;;;;;;;9.27;3.60;;;12.90;99.90;;;;;;5052971;28;20044;-85
2022/04/22 08:52:31;;;;;;;9.95;3.40;;;14.00;99.90;;;;;;5049632;28;20086;-85
2022/04/22 08:54:58;;;;;;;9.40;3.83;;;14.00;99.90;;;;;;5044573;28;20041;-85
2022/04/22 08:57:31;;;;;;;11.90;3.65;;;13.20;99.90;;;;;;5027290;28;20073;-84
2022/04/22 09:00:00;;;;;;;9.93;3.35;;;13.50;99.90;;;;;;5034227;28;20091;-84
2022/04/22 09:02:26;;;;;;;9.18;3.28;;;13.50;99.90;;;;;;5034871;28;20041;-85
2022/04/22 09:04:51;;;;;;;8.90;3.42;;;13.60;99.90;;;;;;5033069;28;20163;-86
2022/04/22 09:07:19;;;;;;;8.65;3.60;;;13.70;99.90;;;;;;5034258;28;20491;-89
2022/04/22 09:09:51;;;;;;;8.35;3.30;;;14.00;99.90;;;;;;5031398;23;20061;-85
2022/04/22 09:12:27;;;;;;;9.27;3.47;;;14.40;99.90;;;;;;5036172;28;20049;-85
2022/04/22 09:14:54;;;;;;;9.02;3.58;;;14.30;99.90;;;;;;5036221;28;20049;-86
2022/04/22 09:17:28;;;;;;;9.73;4.07;;;14.10;99.90;;;;;;5054314;28;20087;-86
2022/04/22 09:19:57;;;;;;;8.60;3.50;;;14.10;99.90;;;;;;5054938;28;20044;-85
2022/04/22 09:22:24;;;;;;;8.55;3.47;;;14.20;99.90;;;;;;5054050;28;20047;-85
2022/04/22 09:24:50;;;;;;;9.60;3.30;;;14.40;99.90;;;;;;5054027;28;20075;-85
2022/04/22 09:27:16;;;;;;;8.75;3.55;;;15.00;99.90;;;;;;5035899;28;20045;-85
2022/04/22 09:29:54;;;;;;;10.32;3.20;;;14.50;99.90;;;;;;5045504;28;20045;-86
2022/04/22 09:32:24;;;;;;;9.73;3.05;;;14.70;99.90;;;;;;5054498;28;20124;-83
2022/04/22 09:34:51;;;;;;;8.48;3.10;;;14.90;99.90;;;;;;5035258;28;20044;-89
2022/04/22 09:42:52;;;;;;;8.25;3.30;;;15.00;99.90;;;;;;5030757;28;20048;-85
2022/04/22 09:45:18;;;;;;;8.80;3.35;;;15.20;99.90;;;;;;5053689;28;20404;-85
2022/04/22 09:47:54;;;;;;;9.27;3.25;;;15.30;99.90;;;;;;5053139;28;20041;-85
2022/04/22 09:50:39;;;;;;;12.15;3.65;;;15.20;99.90;;;;;;5035997;28;20041;-85
2022/04/22 09:53:09;;;;;;;11.02;3.80;;;15.30;99.90;;;;;;5057039;28;20056;-84
2022/04/22 09:56:12;;;;;;;9.00;3.50;;;15.40;99.90;;;;;;5066583;28;20045;-85
2022/04/22 09:58:37;;;;;;;46.83;7.72;;;15.50;99.90;;;;;;5052937;28;20041;-86
2022/04/22 10:01:04;;;;;;;10.25;3.45;;;16.00;99.90;;;;;;5015659;28;20046;-85
2022/04/22 10:03:35;;;;;;;11.63;3.95;;;15.90;99.90;;;;;;5032952;28;20048;-85
2022/04/22 10:06:02;;;;;;;8.68;3.40;;;17.00;99.90;;;;;;5033457;28;20131;-85
2022/04/22 10:08:36;;;;;;;10.60;3.70;;;15.90;99.90;;;;;;5015688;28;20042;-86
2022/04/22 10:11:18;;;;;;;9.68;3.53;;;16.50;99.90;;;;;;5029714;28;20128;-85
2022/04/22 10:13:50;;;;;;;9.73;3.80;;;16.00;99.90;;;;;;5032735;28;20053;-85
2022/04/22 10:16:21;;;;;;;9.60;3.97;;;17.40;99.90;;;;;;5015288;28;20532;-85
2022/04/22 10:19:03;;;;;;;9.48;3.75;;;17.40;99.90;;;;;;5033001;28;20425;-85
2022/04/22 10:21:29;;;;;;;9.10;3.92;;;17.50;99.90;;;;;;5015549;28;20072;-85
2022/04/22 10:24:08;;;;;;;10.38;3.97;;;17.00;99.90;;;;;;5033111;28;20046;-86
2022/04/22 10:26:34;;;;;;;8.95;3.60;;;16.40;99.80;;;;;;5015385;28;20038;-88
2022/04/22 10:29:03;;;;;;;10.95;3.88;;;17.20;99.90;;;;;;5015345;28;20045;-87
2022/04/22 10:31:38;;;;;;;8.98;4.25;;;16.70;99.90;;;;;;5014394;28;20053;-85
2022/04/22 10:34:08;;;;;;;9.38;3.92;;;17.60;99.90;;;;;;5033677;28;20393;-86
2022/04/22 10:36:34;;;;;;;8.73;3.83;;;17.20;99.40;;;;;;5033060;28;20124;-85
2022/04/22 10:39:00;;;;;;;8.85;3.80;;;17.60;99.90;;;;;;5014887;28;20141;-85
2022/04/22 10:41:25;;;;;;;10.23;3.97;;;18.20;99.30;;;;;;5034395;28;20053;-85
2022/04/22 10:47:14;;;;;;;10.38;4.00;;;18.40;98.30;;;;;;5032563;28;20115;-85
2022/04/22 10:49:47;;;;;;;11.23;4.18;;;18.70;98.90;;;;;;5015311;28;20041;-87
2022/04/22 10:52:21;;;;;;;8.30;3.80;;;17.90;97.90;;;;;;5015509;28;20050;-82
2022/04/22 10:54:53;;;;;;;8.82;4.05;;;18.20;98.10;;;;;;5032729;28;20053;-84
2022/04/22 10:57:20;;;;;;;10.13;3.97;;;18.40;97.10;;;;;;5036658;28;20081;-83
2022/04/22 11:00:01;;;;;;;8.50;3.88;;;18.50;97.00;;;;;;5040260;28;20049;-84
2022/04/22 11:02:33;;;;;;;9.98;3.90;;;18.40;96.70;;;;;;5043600;28;20082;-83
2022/04/22 11:05:19;;;;;;;9.88;4.00;;;18.30;95.60;;;;;;5042453;28;20664;-84
2022/04/22 11:07:51;;;;;;;11.48;4.43;;;19.00;95.30;;;;;;5041234;28;20480;-85
2022/04/22 11:10:21;;;;;;;11.23;4.20;;;18.40;95.00;;;;;;5035606;28;20060;-89
2022/04/22 11:12:53;;;;;;;10.40;4.13;;;18.50;94.90;;;;;;5058300;28;20412;-86
2022/04/22 11:15:52;;;;;;;11.88;4.22;;;18.30;94.50;;;;;;5054593;28;20045;-86
2022/04/22 11:18:18;;;;;;;9.73;4.30;;;18.50;94.70;;;;;;5030747;28;20042;-88
2022/04/22 11:20:45;;;;;;;11.27;4.35;;;18.50;94.70;;;;;;5047343;28;20120;-87
2022/04/22 11:23:12;;;;;;;9.88;4.40;;;19.00;94.90;;;;;;5055127;28;20044;-87
2022/04/22 11:25:38;;;;;;;10.85;4.20;;;19.30;94.80;;;;;;5055275;28;20047;-85
2022/04/22 11:28:05;;;;;;;9.05;4.13;;;18.60;94.20;;;;;;5055543;28;20049;-87
2022/04/22 11:30:32;;;;;;;11.68;3.97;;;19.20;94.00;;;;;;5055492;28;20055;-87
2022/04/22 11:33:22;;;;;;;12.13;4.60;;;19.30;93.60;;;;;;5055616;28;20073;-87
2022/04/22 11:35:59;;;;;;;8.70;3.90;;;19.40;92.90;;;;;;5056424;28;20052;-87
2022/04/22 11:38:25;;;;;;;11.15;4.18;;;19.10;93.30;;;;;;5056629;28;20048;-87
2022/04/22 11:40:51;;;;;;;10.07;3.88;;;19.30;93.30;;;;;;5055369;28;20396;-87
2022/04/22 11:43:18;;;;;;;10.68;4.30;;;19.40;93.40;;;;;;5056385;28;20045;-87
2022/04/22 11:45:51;;;;;;;10.70;4.40;;;19.40;92.90;;;;;;5056182;28;20041;-87
2022/04/22 11:48:21;;;;;;;11.90;4.20;;;18.90;91.90;;;;;;5055804;28;20037;-87
2022/04/22 11:50:47;;;;;;;9.65;4.32;;;19.00;92.20;;;;;;5056045;28;20128;-86
2022/04/22 11:53:18;;;;;;;11.15;4.60;;;19.70;92.50;;;;;;5056327;28;20124;-86
2022/04/22 11:55:45;;;;;;;9.20;4.18;;;18.90;92.30;;;;;;5055096;28;20120;-86
2022/04/22 11:58:27;;;;;;;9.32;4.07;;;18.90;92.70;;;;;;5053389;28;20053;-87
2022/04/22 12:06:24;;;;;;;11.02;4.80;;;19.60;92.70;;;;;;5054915;28;20049;-87
2022/04/22 12:08:53;;;;;;;11.32;4.85;;;19.00;92.30;;;;;;5054125;28;20111;-87
2022/04/22 12:11:19;;;;;;;9.75;4.57;;;18.80;92.50;;;;;;5055743;28;20619;-87
2022/04/22 12:13:47;;;;;;;10.00;4.75;;;19.00;92.40;;;;;;5054272;28;20053;-87
2022/04/22 12:16:18;;;;;;;10.15;4.97;;;19.50;92.40;;;;;;5054925;28;20427;-86
2022/04/22 12:18:47;;;;;;;10.77;4.82;;;19.60;92.20;;;;;;5054208;28;20049;-86
2022/04/22 12:21:13;;;;;;;12.52;5.00;;;19.90;92.00;;;;;;5055919;28;20123;-87
2022/04/22 12:23:41;;;;;;;10.50;5.15;;;19.80;91.60;;;;;;5054319;28;20048;-87
2022/04/22 12:26:20;;;;;;;10.75;4.75;;;19.80;91.70;;;;;;5054137;28;20049;-87
2022/04/22 12:28:59;;;;;;;13.02;5.25;;;19.70;91.00;;;;;;5055428;28;20076;-87
2022/04/22 12:31:26;;;;;;;10.30;5.30;;;19.50;91.50;;;;;;5054886;28;20041;-87
2022/04/22 12:34:02;;;;;;;11.88;5.40;;;19.10;91.80;;;;;;5055198;28;20115;-86
2022/04/22 12:36:28;;;;;;;11.60;5.50;;;19.00;91.60;;;;;;5057825;28;20055;-87
2022/04/22 12:38:54;;;;;;;11.18;6.10;;;18.80;92.00;;;;;;5055103;28;20041;-87
2022/04/22 12:41:23;;;;;;;10.13;5.38;;;18.70;92.00;;;;;;5054183;28;20049;-87
2022/04/22 12:43:53;;;;;;;10.15;5.32;;;18.50;92.00;;;;;;5052333;28;20420;-87
2022/04/22 12:52:32;;;;;;;11.13;5.78;;;18.40;92.80;;;;;;5021184;28;20049;-86
2022/04/22 12:55:08;;;;;;;11.98;5.45;;;18.70;92.30;;;;;;5054511;28;20041;-86
2022/04/22 12:57:36;;;;;;;11.32;5.45;;;19.60;92.20;;;;;;5054414;28;20080;-87
2022/04/22 13:00:14;;;;;;;13.00;5.50;;;19.50;92.00;;;;;;5054601;28;20041;-87
2022/04/22 13:02:39;;;;;;;11.20;5.80;;;19.60;91.30;;;;;;5054312;28;20405;-87
2022/04/22 13:05:06;;;;;;;12.32;5.82;;;19.60;91.50;;;;;;5053921;28;20041;-87
2022/04/22 13:07:45;;;;;;;11.35;6.00;;;19.50;91.40;;;;;;5060955;28;20040;-87
2022/04/22 13:10:12;;;;;;;12.55;5.63;;;19.20;91.40;;;;;;5067573;28;20053;-87
2022/04/22 13:12:43;;;;;;;11.43;6.10;;;19.10;91.80;;;;;;5054121;28;20087;-87
2022/04/22 13:15:13;;;;;;;12.23;6.03;;;19.10;91.90;;;;;;5053522;28;20048;-87
2022/04/22 13:17:43;;;;;;;9.70;5.85;;;19.60;92.00;;;;;;5054727;28;20041;-86
2022/04/22 13:20:12;;;;;;;10.57;5.75;;;19.40;91.60;;;;;;5053928;28;20132;-86
2022/04/22 13:22:38;;;;;;;14.30;5.68;;;19.30;91.20;;;;;;5054569;28;20045;-86
2022/04/22 13:25:05;;;;;;;13.85;5.50;;;19.20;91.30;;;;;;5054431;28;20420;-87
2022/04/22 13:27:30;;;;;;;12.20;5.85;;;19.40;91.30;;;;;;5053424;28;20507;-87
2022/04/22 13:29:56;;;;;;;11.27;5.43;;;19.60;90.90;;;;;;5053093;28;20131;-87
2022/04/22 13:32:22;;;;;;;10.82;5.22;;;19.70;90.80;;;;;;5054306;28;20042;-86
2022/04/22 13:34:47;;;;;;;10.73;5.22;;;19.60;90.90;;;;;;5053540;28;20478;-87
2022/04/22 13:37:13;;;;;;;10.60;5.30;;;19.50;91.00;;;;;;5053809;28;20063;-86
2022/04/22 13:39:38;;;;;;;11.60;5.72;;;19.80;90.90;;;;;;5051856;28;20079;-86
2022/04/22 13:42:04;;;;;;;13.68;5.63;;;20.10;90.90;;;;;;5052782;28;20048;-86
2022/04/22 13:52:42;;;;;;;12.60;4.93;;;21.40;90.60;;;;;;5052088;28;20052;-86
2022/04/22 13:55:09;;;;;;;10.48;5.10;;;21.40;90.20;;;;;;5053173;28;20374;-86
2022/04/22 13:57:34;;;;;;;10.32;5.13;;;20.40;89.80;;;;;;5053881;28;20091;-86
2022/04/22 14:00:00;;;;;;;9.85;5.18;;;20.10;89.90;;;;;;5053480;28;20037;-87
2022/04/22 14:02:26;;;;;;;10.30;5.45;;;19.60;89.70;;;;;;5053126;28;20461;-86
2022/04/22 14:04:51;;;;;;;12.57;5.32;;;19.40;90.10;;;;;;5053365;28;20119;-86